Time;durP1;ratioP1;P1;durP2;ratioP2;P2;SDS_P1;SDS_P2;PMS_P1;PMS_P2;Temp;Humidity;BMP_temperature;BMP_pressure;BME280_temperature;BME280_humidity;BME280_pressure;Samples;Min_cycle;Max_cycle;Signal;HPM_P1;HPM_P2
2023/06/30 00:00:26;;;;;;;3.67;3.30;;;20.90;66.00;;;;;;900611;155;27516;-77
2023/06/30 00:02:55;;;;;;;3.90;3.50;;;20.90;66.20;;;;;;900582;155;27291;-77
2023/06/30 00:05:20;;;;;;;3.72;3.42;;;20.80;66.40;;;;;;899538;155;28405;-77
2023/06/30 00:07:47;;;;;;;3.77;3.47;;;20.80;66.70;;;;;;900177;155;27490;-77
2023/06/30 00:10:13;;;;;;;3.85;3.55;;;20.80;67.00;;;;;;900837;155;27410;-77
2023/06/30 00:12:39;;;;;;;4.20;3.80;;;20.80;67.10;;;;;;897863;155;27365;-77
2023/06/30 00:15:06;;;;;;;4.37;3.98;;;20.80;67.30;;;;;;897951;155;27506;-77
2023/06/30 00:17:33;;;;;;;4.10;3.80;;;20.80;67.40;;;;;;898310;155;27408;-77
2023/06/30 00:19:59;;;;;;;4.35;4.05;;;20.80;67.60;;;;;;899645;155;27427;-77
2023/06/30 00:22:26;;;;;;;4.25;3.30;;;20.80;67.70;;;;;;897925;155;27485;-77
2023/06/30 00:24:55;;;;;;;4.08;3.75;;;20.80;67.90;;;;;;902143;155;27432;-77
2023/06/30 00:27:25;;;;;;;4.45;3.52;;;20.80;68.10;;;;;;892167;155;27542;-77
2023/06/30 00:29:51;;;;;;;4.22;3.80;;;20.80;68.10;;;;;;896142;158;27386;-76
2023/06/30 00:32:18;;;;;;;4.42;3.87;;;20.80;68.10;;;;;;897585;155;27695;-76
2023/06/30 00:34:45;;;;;;;3.75;3.50;;;20.80;68.20;;;;;;899734;157;27502;-76
2023/06/30 00:37:11;;;;;;;4.05;3.72;;;20.80;68.40;;;;;;899768;155;27403;-76
2023/06/30 00:39:38;;;;;;;4.12;3.77;;;20.80;69.20;;;;;;901200;155;27487;-75
2023/06/30 00:42:04;;;;;;;3.60;3.30;;;20.80;68.50;;;;;;901136;155;27351;-76
2023/06/30 00:44:31;;;;;;;4.65;3.50;;;20.80;68.50;;;;;;899363;155;27466;-76
2023/06/30 00:47:00;;;;;;;5.08;3.42;;;20.80;68.70;;;;;;899448;155;27361;-76
2023/06/30 00:49:24;;;;;;;3.95;3.67;;;20.80;68.90;;;;;;898993;155;27517;-76
2023/06/30 00:51:51;;;;;;;4.35;3.95;;;20.80;69.20;;;;;;898328;155;27492;-76
2023/06/30 00:54:17;;;;;;;4.05;3.65;;;20.80;69.20;;;;;;897358;155;27409;-76
2023/06/30 00:56:44;;;;;;;4.33;3.92;;;20.80;69.40;;;;;;898972;155;27391;-76
2023/06/30 00:59:11;;;;;;;4.30;3.80;;;20.80;69.50;;;;;;900060;155;27419;-76
2023/06/30 01:01:46;;;;;;;3.98;3.65;;;20.80;69.50;;;;;;899004;155;27422;-76
2023/06/30 01:04:25;;;;;;;5.85;4.37;;;20.80;69.50;;;;;;897973;155;27499;-76
2023/06/30 01:06:57;;;;;;;4.62;4.10;;;20.70;69.60;;;;;;898905;155;27392;-76
2023/06/30 01:09:24;;;;;;;4.85;4.45;;;20.70;69.60;;;;;;898151;155;27454;-76
2023/06/30 01:11:50;;;;;;;4.87;3.90;;;20.70;69.80;;;;;;899111;155;27436;-76
2023/06/30 01:14:17;;;;;;;4.62;3.83;;;20.70;70.00;;;;;;899205;155;27396;-76
2023/06/30 01:16:43;;;;;;;4.50;4.10;;;20.70;70.10;;;;;;899094;155;27427;-76
2023/06/30 01:19:16;;;;;;;4.35;3.95;;;20.70;70.30;;;;;;899176;155;27469;-76
2023/06/30 01:21:46;;;;;;;4.08;3.52;;;20.70;70.40;;;;;;900111;155;27746;-76
2023/06/30 01:24:09;;;;;;;4.45;4.05;;;20.70;70.60;;;;;;900039;157;27582;-76
2023/06/30 01:26:36;;;;;;;3.98;3.67;;;20.60;70.80;;;;;;898814;155;27854;-76
2023/06/30 01:29:03;;;;;;;4.30;3.90;;;20.60;70.80;;;;;;896098;155;27360;-76
2023/06/30 01:31:31;;;;;;;4.40;4.00;;;20.60;71.30;;;;;;898934;155;27477;-76
2023/06/30 01:33:55;;;;;;;4.95;4.50;;;20.60;71.40;;;;;;897608;154;27455;-76
2023/06/30 01:36:22;;;;;;;4.67;4.28;;;20.50;71.40;;;;;;898238;156;27395;-76
2023/06/30 01:38:49;;;;;;;4.90;4.08;;;20.50;71.60;;;;;;898493;155;27350;-76
2023/06/30 01:41:15;;;;;;;5.40;4.72;;;20.50;71.90;;;;;;898283;155;27527;-76
2023/06/30 01:43:42;;;;;;;4.62;4.17;;;20.50;72.10;;;;;;897548;155;27397;-76
2023/06/30 01:46:08;;;;;;;4.58;4.17;;;20.50;72.30;;;;;;899394;155;27399;-76
2023/06/30 01:48:35;;;;;;;4.70;4.30;;;20.50;72.40;;;;;;899410;155;27354;-76
2023/06/30 01:51:02;;;;;;;4.50;4.12;;;20.50;72.50;;;;;;898930;157;27437;-76
2023/06/30 01:53:28;;;;;;;4.45;4.12;;;20.50;72.60;;;;;;898392;156;27546;-76
2023/06/30 01:55:55;;;;;;;4.87;4.12;;;20.50;72.70;;;;;;898822;157;27404;-76
2023/06/30 01:58:21;;;;;;;4.58;4.00;;;20.50;72.80;;;;;;900457;155;27453;-76
2023/06/30 02:00:48;;;;;;;4.80;4.40;;;20.50;73.00;;;;;;900007;155;27443;-76
2023/06/30 02:03:15;;;;;;;4.28;3.87;;;20.50;73.10;;;;;;899602;155;27462;-76
2023/06/30 02:05:41;;;;;;;5.42;3.98;;;20.50;73.10;;;;;;900247;155;27548;-76
2023/06/30 02:08:08;;;;;;;4.58;4.15;;;20.60;73.20;;;;;;898180;155;27371;-76
2023/06/30 02:10:35;;;;;;;4.83;4.30;;;20.60;73.30;;;;;;898191;155;27371;-76
2023/06/30 02:13:01;;;;;;;4.60;4.20;;;20.60;73.30;;;;;;898580;155;27468;-76
2023/06/30 02:15:27;;;;;;;4.75;4.28;;;20.70;74.20;;;;;;899099;155;27486;-76
2023/06/30 02:17:55;;;;;;;4.28;3.98;;;20.70;73.30;;;;;;899027;155;27412;-76
2023/06/30 02:20:21;;;;;;;4.90;4.45;;;20.70;73.40;;;;;;898009;155;27305;-76
2023/06/30 02:22:47;;;;;;;4.00;3.65;;;20.80;73.40;;;;;;897912;155;27396;-76
2023/06/30 02:25:14;;;;;;;4.62;4.22;;;20.70;73.20;;;;;;900540;155;27783;-76
2023/06/30 02:27:40;;;;;;;4.55;3.85;;;20.70;73.20;;;;;;896662;155;27446;-76
2023/06/30 02:30:08;;;;;;;4.20;3.80;;;20.80;73.10;;;;;;899637;155;27291;-75
2023/06/30 02:32:37;;;;;;;4.22;3.87;;;20.80;73.00;;;;;;900210;155;27378;-76
2023/06/30 02:35:00;;;;;;;4.67;3.35;;;20.80;72.80;;;;;;896177;155;27431;-76
2023/06/30 02:37:27;;;;;;;4.62;3.72;;;20.80;72.80;;;;;;898476;155;27509;-76
2023/06/30 02:39:53;;;;;;;4.20;3.90;;;20.80;72.80;;;;;;897718;155;27389;-75
2023/06/30 02:42:20;;;;;;;4.47;4.08;;;20.80;72.70;;;;;;897933;155;27363;-76
2023/06/30 02:44:47;;;;;;;4.20;3.80;;;20.80;72.80;;;;;;897935;155;27400;-76
2023/06/30 02:47:13;;;;;;;4.67;4.15;;;20.80;72.70;;;;;;898714;155;27398;-71
2023/06/30 02:49:40;;;;;;;4.87;4.00;;;20.80;72.80;;;;;;902372;155;27430;-71
2023/06/30 02:52:07;;;;;;;4.05;3.70;;;20.80;72.80;;;;;;899466;155;27330;-71
2023/06/30 02:54:33;;;;;;;3.92;3.52;;;20.80;72.90;;;;;;899137;155;27449;-71
2023/06/30 02:57:00;;;;;;;3.75;3.40;;;20.80;72.90;;;;;;899368;155;27376;-71
2023/06/30 02:59:26;;;;;;;4.25;3.85;;;20.80;72.90;;;;;;898135;155;27398;-71
2023/06/30 03:01:53;;;;;;;4.03;3.62;;;20.80;72.90;;;;;;898380;155;27312;-71
2023/06/30 03:04:19;;;;;;;3.85;3.55;;;20.80;72.90;;;;;;897480;155;27442;-71
2023/06/30 03:06:46;;;;;;;4.37;3.62;;;20.80;72.80;;;;;;898320;155;27510;-71
2023/06/30 03:09:12;;;;;;;4.08;3.75;;;20.80;72.80;;;;;;899431;155;27476;-71
2023/06/30 03:11:39;;;;;;;7.55;4.15;;;20.80;72.80;;;;;;898519;157;27530;-71
2023/06/30 03:14:06;;;;;;;4.37;3.92;;;20.80;72.80;;;;;;898095;155;27393;-71
2023/06/30 03:16:32;;;;;;;3.62;3.33;;;20.80;73.00;;;;;;899845;155;27398;-71
2023/06/30 03:18:59;;;;;;;4.95;4.45;;;20.90;73.20;;;;;;897812;155;27486;-71
2023/06/30 03:21:25;;;;;;;3.75;3.08;;;20.80;73.20;;;;;;898944;155;27472;-71
2023/06/30 03:23:52;;;;;;;4.40;3.67;;;20.80;73.20;;;;;;899904;155;28001;-70
2023/06/30 03:26:19;;;;;;;4.47;3.60;;;20.90;73.30;;;;;;898514;155;27470;-71
2023/06/30 03:28:45;;;;;;;5.12;4.20;;;20.90;73.40;;;;;;899659;155;28123;-71
2023/06/30 03:31:12;;;;;;;5.05;4.22;;;20.90;73.40;;;;;;898297;155;27784;-71
2023/06/30 03:33:38;;;;;;;4.22;3.83;;;20.90;73.40;;;;;;897744;155;28071;-70
2023/06/30 03:36:05;;;;;;;4.55;4.15;;;20.90;73.40;;;;;;899916;155;27381;-70
2023/06/30 03:38:32;;;;;;;4.25;3.80;;;20.90;73.40;;;;;;899459;155;27363;-71
2023/06/30 03:40:58;;;;;;;5.30;4.10;;;20.90;73.40;;;;;;897997;155;27402;-71
2023/06/30 03:43:25;;;;;;;5.65;4.20;;;20.90;73.40;;;;;;899936;155;27400;-71
2023/06/30 03:45:51;;;;;;;3.70;3.40;;;20.90;73.40;;;;;;897627;158;27420;-71
2023/06/30 03:48:20;;;;;;;4.35;3.95;;;21.00;73.50;;;;;;898455;155;27414;-71
2023/06/30 03:50:45;;;;;;;3.92;3.62;;;21.00;73.50;;;;;;897968;155;27451;-71
2023/06/30 03:53:11;;;;;;;4.30;3.90;;;21.00;73.50;;;;;;899556;155;27496;-74
2023/06/30 03:55:38;;;;;;;6.25;3.62;;;21.00;73.50;;;;;;898022;155;27495;-71
2023/06/30 03:58:04;;;;;;;4.03;3.72;;;21.00;73.50;;;;;;900068;155;27470;-71
2023/06/30 04:00:31;;;;;;;3.85;3.42;;;21.00;73.50;;;;;;898344;155;27471;-71
2023/06/30 04:02:57;;;;;;;4.37;3.98;;;21.00;73.40;;;;;;902214;155;27500;-71
2023/06/30 04:05:24;;;;;;;4.12;3.72;;;21.00;73.40;;;;;;899068;155;27822;-71
2023/06/30 04:07:51;;;;;;;4.87;4.10;;;21.10;73.50;;;;;;899007;155;27374;-71
2023/06/30 04:10:17;;;;;;;5.40;3.90;;;21.10;73.60;;;;;;897555;155;27483;-70
2023/06/30 04:12:44;;;;;;;4.25;3.85;;;21.10;73.80;;;;;;898153;155;27756;-71
2023/06/30 04:15:11;;;;;;;4.78;4.28;;;21.10;73.90;;;;;;898366;155;27473;-71
2023/06/30 04:17:37;;;;;;;4.30;3.90;;;21.10;74.00;;;;;;898308;155;27500;-71
2023/06/30 04:20:08;;;;;;;4.60;4.15;;;21.10;74.10;;;;;;898198;155;27442;-71
2023/06/30 04:22:30;;;;;;;4.42;4.03;;;21.20;74.30;;;;;;898144;155;27402;-71
2023/06/30 04:24:57;;;;;;;4.58;4.17;;;21.20;74.30;;;;;;898445;155;27477;-71
2023/06/30 04:27:23;;;;;;;4.50;4.10;;;21.20;74.40;;;;;;899194;155;27422;-71
2023/06/30 04:29:50;;;;;;;4.95;4.28;;;21.30;74.50;;;;;;898196;155;27412;-71
2023/06/30 04:32:16;;;;;;;7.03;4.53;;;21.30;74.60;;;;;;899864;155;27464;-71
2023/06/30 04:34:44;;;;;;;5.45;4.80;;;21.40;74.80;;;;;;900635;154;27777;-73
2023/06/30 04:37:10;;;;;;;4.50;4.10;;;21.40;74.80;;;;;;898572;155;27488;-73
2023/06/30 04:39:36;;;;;;;4.65;4.25;;;21.40;74.80;;;;;;899950;155;27431;-73
2023/06/30 04:42:03;;;;;;;5.78;4.62;;;21.50;74.90;;;;;;898604;155;27331;-73
2023/06/30 04:44:30;;;;;;;5.08;4.62;;;21.50;75.10;;;;;;899118;155;27367;-73
2023/06/30 04:46:56;;;;;;;5.35;4.50;;;21.50;75.00;;;;;;899834;155;27303;-73
2023/06/30 04:49:24;;;;;;;5.05;4.55;;;21.60;75.30;;;;;;898570;155;27494;-73
2023/06/30 04:51:49;;;;;;;7.83;5.42;;;21.60;75.60;;;;;;897635;155;27407;-73
2023/06/30 04:54:19;;;;;;;5.22;4.65;;;21.60;75.80;;;;;;896731;155;27344;-73
2023/06/30 04:56:42;;;;;;;4.87;4.47;;;21.60;76.20;;;;;;899584;155;27311;-73
2023/06/30 04:59:09;;;;;;;5.30;4.83;;;21.70;76.40;;;;;;897170;155;27382;-73
2023/06/30 05:01:36;;;;;;;6.30;5.65;;;21.70;76.50;;;;;;899907;155;27376;-73
2023/06/30 05:04:02;;;;;;;5.75;5.15;;;21.70;76.50;;;;;;901475;155;27291;-73
2023/06/30 05:06:29;;;;;;;6.53;5.35;;;21.70;76.80;;;;;;898378;155;27738;-73
2023/06/30 05:08:55;;;;;;;8.18;5.92;;;21.80;77.00;;;;;;900656;155;27444;-73
2023/06/30 05:11:22;;;;;;;5.92;5.20;;;21.80;77.10;;;;;;899142;155;27488;-73
2023/06/30 05:13:49;;;;;;;6.28;5.58;;;21.80;77.40;;;;;;900709;155;27455;-73
2023/06/30 05:16:15;;;;;;;6.50;5.72;;;21.80;77.80;;;;;;900368;157;27460;-73
2023/06/30 05:18:42;;;;;;;5.80;5.30;;;21.80;78.10;;;;;;897568;155;27441;-73
2023/06/30 05:21:11;;;;;;;6.08;5.47;;;21.80;78.60;;;;;;898963;155;27447;-73
2023/06/30 05:23:38;;;;;;;8.10;7.20;;;21.80;78.90;;;;;;898239;155;27469;-73
2023/06/30 05:26:04;;;;;;;7.17;5.65;;;21.80;79.20;;;;;;899296;155;27371;-73
2023/06/30 05:28:31;;;;;;;7.12;5.85;;;21.80;79.60;;;;;;899063;155;27368;-73
2023/06/30 05:30:57;;;;;;;6.72;5.97;;;21.80;79.80;;;;;;898546;155;27486;-73
2023/06/30 05:33:24;;;;;;;7.80;5.45;;;21.80;79.80;;;;;;899955;155;27519;-73
2023/06/30 05:35:51;;;;;;;9.40;6.05;;;21.80;80.10;;;;;;899534;155;27494;-73
2023/06/30 05:38:17;;;;;;;8.10;6.33;;;21.90;80.70;;;;;;899148;155;27458;-73
2023/06/30 05:40:44;;;;;;;7.83;6.10;;;21.90;81.00;;;;;;899419;155;27382;-73
2023/06/30 05:43:10;;;;;;;8.25;6.40;;;21.90;81.40;;;;;;898007;155;27420;-73
2023/06/30 05:45:37;;;;;;;6.90;6.30;;;21.90;82.00;;;;;;896932;155;27410;-73
2023/06/30 05:48:04;;;;;;;7.90;6.60;;;22.00;82.50;;;;;;898377;155;27375;-73
2023/06/30 05:50:30;;;;;;;7.67;6.42;;;22.10;82.80;;;;;;899429;155;27358;-73
2023/06/30 05:52:57;;;;;;;6.97;5.50;;;22.10;82.90;;;;;;901496;155;27489;-73
2023/06/30 05:55:23;;;;;;;6.97;6.28;;;22.20;83.00;;;;;;899751;155;27471;-73
2023/06/30 05:57:50;;;;;;;7.90;5.90;;;22.30;83.40;;;;;;899715;155;27488;-73
2023/06/30 06:00:17;;;;;;;7.85;6.22;;;22.40;83.40;;;;;;899696;155;27388;-73
2023/06/30 06:02:43;;;;;;;8.05;7.28;;;22.40;83.30;;;;;;898933;155;27549;-73
2023/06/30 06:05:10;;;;;;;7.30;6.58;;;22.50;83.00;;;;;;898578;155;27389;-73
2023/06/30 06:07:37;;;;;;;12.50;7.55;;;22.60;83.10;;;;;;897765;155;27399;-73
2023/06/30 06:10:03;;;;;;;7.92;7.10;;;22.70;83.30;;;;;;898659;155;27381;-73
2023/06/30 06:12:30;;;;;;;8.00;7.20;;;22.70;84.20;;;;;;901067;155;27471;-73
2023/06/30 06:14:56;;;;;;;7.75;7.03;;;22.80;83.60;;;;;;899944;155;27473;-74
2023/06/30 06:17:23;;;;;;;8.38;7.47;;;22.90;83.70;;;;;;899851;155;27434;-74
2023/06/30 06:19:49;;;;;;;8.25;7.42;;;23.00;83.90;;;;;;899067;155;27402;-73
2023/06/30 06:22:16;;;;;;;8.10;7.30;;;23.10;84.00;;;;;;897791;155;27462;-74
2023/06/30 06:24:43;;;;;;;8.88;7.97;;;23.20;83.90;;;;;;899375;155;27477;-73
2023/06/30 06:27:09;;;;;;;8.33;7.33;;;23.30;83.90;;;;;;899092;155;27400;-74
2023/06/30 06:29:36;;;;;;;8.40;7.35;;;23.40;84.10;;;;;;898049;155;27400;-73
2023/06/30 06:32:02;;;;;;;8.63;7.12;;;23.50;83.50;;;;;;899279;155;28230;-73
2023/06/30 06:34:29;;;;;;;8.00;7.20;;;23.60;83.10;;;;;;898709;155;27522;-73
2023/06/30 06:36:56;;;;;;;11.22;7.65;;;23.70;82.70;;;;;;899958;155;27457;-74
2023/06/30 06:39:22;;;;;;;7.85;7.00;;;23.80;82.20;;;;;;898445;155;27395;-73
2023/06/30 06:41:49;;;;;;;9.30;8.10;;;23.90;82.00;;;;;;899145;155;27481;-73
2023/06/30 06:44:15;;;;;;;8.13;7.20;;;24.00;81.90;;;;;;899706;155;27494;-74
2023/06/30 06:46:43;;;;;;;10.50;8.65;;;24.10;81.80;;;;;;899983;155;27369;-74
2023/06/30 06:49:09;;;;;;;9.63;8.40;;;24.20;81.60;;;;;;898842;155;27354;-73
2023/06/30 06:51:35;;;;;;;10.53;8.33;;;24.30;81.30;;;;;;899777;155;28112;-73
2023/06/30 06:54:02;;;;;;;8.83;7.72;;;24.30;81.10;;;;;;899235;155;27545;-74
2023/06/30 06:56:28;;;;;;;9.20;7.95;;;24.50;80.80;;;;;;898948;155;27417;-73
2023/06/30 06:58:55;;;;;;;9.05;8.15;;;24.50;80.30;;;;;;898580;155;27370;-73
2023/06/30 07:01:22;;;;;;;9.78;8.78;;;24.60;79.80;;;;;;900980;155;27416;-73
2023/06/30 07:03:48;;;;;;;9.58;8.48;;;24.70;79.50;;;;;;898481;155;27515;-74
2023/06/30 07:06:16;;;;;;;9.15;8.25;;;24.70;79.20;;;;;;897913;155;27377;-73
2023/06/30 07:08:41;;;;;;;9.40;8.50;;;24.80;79.40;;;;;;901136;155;27385;-73
2023/06/30 07:11:08;;;;;;;11.48;9.25;;;24.90;79.50;;;;;;898719;155;27413;-74
2023/06/30 07:13:34;;;;;;;10.25;9.20;;;25.10;79.50;;;;;;897725;155;27408;-74
2023/06/30 07:16:01;;;;;;;10.28;9.28;;;25.20;79.90;;;;;;899290;155;27454;-74
2023/06/30 07:18:29;;;;;;;11.57;9.40;;;25.40;79.50;;;;;;898901;155;27333;-73
2023/06/30 07:20:54;;;;;;;11.60;9.28;;;25.60;79.80;;;;;;901476;154;27433;-73
2023/06/30 07:23:21;;;;;;;10.30;9.30;;;25.80;78.60;;;;;;900394;155;27420;-73
2023/06/30 07:25:47;;;;;;;11.57;10.15;;;26.10;77.70;;;;;;899492;155;27396;-74
2023/06/30 07:28:14;;;;;;;13.65;10.82;;;26.30;76.80;;;;;;899242;155;27491;-73
2023/06/30 07:30:41;;;;;;;11.03;9.93;;;26.50;75.70;;;;;;900380;155;27448;-74
2023/06/30 07:33:07;;;;;;;11.88;10.38;;;26.70;74.60;;;;;;898456;155;27410;-73
2023/06/30 07:35:34;;;;;;;11.68;10.48;;;26.90;73.40;;;;;;899556;155;27403;-73
2023/06/30 07:38:00;;;;;;;11.33;9.85;;;27.00;72.10;;;;;;900331;155;27374;-73
2023/06/30 07:40:27;;;;;;;11.85;10.65;;;27.10;71.30;;;;;;901000;155;27352;-74
2023/06/30 07:42:54;;;;;;;12.63;11.03;;;27.10;70.90;;;;;;900377;155;27314;-74
2023/06/30 07:45:20;;;;;;;12.23;10.93;;;27.10;70.60;;;;;;898349;155;27404;-74
2023/06/30 07:47:47;;;;;;;12.05;10.72;;;27.20;70.20;;;;;;900142;155;27394;-74
2023/06/30 07:50:13;;;;;;;12.88;11.48;;;27.30;70.00;;;;;;900374;155;27393;-73
2023/06/30 07:52:41;;;;;;;13.08;10.95;;;27.30;69.60;;;;;;898564;155;27380;-73
2023/06/30 07:55:07;;;;;;;11.55;10.38;;;27.40;69.60;;;;;;895400;155;27395;-73
2023/06/30 07:57:33;;;;;;;13.00;11.70;;;27.40;69.40;;;;;;899938;154;27450;-74
2023/06/30 08:00:00;;;;;;;13.28;11.97;;;27.40;69.00;;;;;;896845;155;27374;-74
2023/06/30 08:02:26;;;;;;;14.55;13.03;;;27.50;68.90;;;;;;898302;154;27352;-74
2023/06/30 08:04:53;;;;;;;13.90;12.50;;;27.50;68.40;;;;;;899757;157;27394;-74
2023/06/30 08:07:19;;;;;;;14.90;13.35;;;27.50;68.40;;;;;;898271;155;27393;-73
2023/06/30 08:09:46;;;;;;;14.43;12.78;;;27.60;68.60;;;;;;898096;155;27410;-73
2023/06/30 08:12:13;;;;;;;14.20;12.60;;;27.60;68.60;;;;;;900186;156;27387;-74
2023/06/30 08:14:39;;;;;;;15.20;13.70;;;27.70;68.50;;;;;;898533;157;27374;-74
2023/06/30 08:17:06;;;;;;;15.63;14.03;;;27.90;69.00;;;;;;899147;155;27507;-74
2023/06/30 08:19:32;;;;;;;18.00;14.50;;;28.00;69.20;;;;;;897022;156;27406;-73
2023/06/30 08:22:01;;;;;;;17.12;15.23;;;28.10;68.20;;;;;;898200;155;27404;-74
2023/06/30 08:24:26;;;;;;;16.77;14.95;;;28.20;67.30;;;;;;901965;155;27399;-74
2023/06/30 08:26:52;;;;;;;19.73;15.80;;;28.20;66.30;;;;;;901080;155;27373;-74
2023/06/30 08:29:19;;;;;;;16.50;14.90;;;28.20;65.80;;;;;;899444;155;27412;-73
2023/06/30 08:31:45;;;;;;;15.35;13.75;;;28.10;66.00;;;;;;897817;155;27470;-74
2023/06/30 08:34:12;;;;;;;15.65;13.98;;;28.00;64.80;;;;;;899652;155;27925;-74
2023/06/30 08:36:39;;;;;;;14.40;12.90;;;27.90;64.40;;;;;;898578;154;27727;-73
2023/06/30 08:39:05;;;;;;;13.45;12.05;;;27.80;64.30;;;;;;899592;157;27432;-73
2023/06/30 08:41:32;;;;;;;11.70;10.48;;;27.60;64.30;;;;;;899914;155;27438;-74
2023/06/30 08:43:59;;;;;;;11.90;10.65;;;27.40;64.40;;;;;;899066;157;27419;-73
2023/06/30 08:46:26;;;;;;;10.68;9.58;;;27.20;64.30;;;;;;900307;157;27386;-73
2023/06/30 08:48:52;;;;;;;9.25;8.40;;;27.10;64.60;;;;;;898837;155;27384;-73
2023/06/30 08:51:18;;;;;;;9.23;8.25;;;27.00;64.90;;;;;;898323;155;27405;-73
2023/06/30 08:53:45;;;;;;;8.40;7.60;;;26.80;65.10;;;;;;899799;155;27764;-73
2023/06/30 08:56:11;;;;;;;7.17;6.58;;;26.70;65.30;;;;;;874033;163;27372;-74
2023/06/30 08:58:38;;;;;;;6.35;5.83;;;26.60;65.40;;;;;;899435;156;27430;-73
2023/06/30 09:01:05;;;;;;;5.65;4.95;;;26.40;65.60;;;;;;899416;155;27419;-74
2023/06/30 09:03:31;;;;;;;5.30;4.80;;;26.40;65.90;;;;;;900112;155;27424;-73
2023/06/30 09:05:58;;;;;;;4.22;3.92;;;26.30;65.90;;;;;;899699;155;27508;-73
2023/06/30 09:08:24;;;;;;;4.22;3.90;;;26.20;65.80;;;;;;900845;156;27463;-73
2023/06/30 09:10:51;;;;;;;4.05;3.27;;;26.10;65.70;;;;;;897600;154;27774;-73
2023/06/30 09:13:18;;;;;;;3.58;3.27;;;26.00;65.60;;;;;;898527;155;27486;-73
2023/06/30 09:15:44;;;;;;;3.85;3.45;;;26.00;65.70;;;;;;899523;155;27488;-73
2023/06/30 09:18:11;;;;;;;3.15;2.90;;;25.90;65.90;;;;;;899554;155;27378;-73
2023/06/30 09:20:38;;;;;;;3.02;2.70;;;25.70;65.90;;;;;;898424;155;27399;-73
2023/06/30 09:23:04;;;;;;;2.60;2.40;;;25.70;66.00;;;;;;898555;155;27374;-73
2023/06/30 09:25:33;;;;;;;2.27;2.08;;;25.60;66.10;;;;;;897688;157;27408;-73
2023/06/30 09:28:00;;;;;;;2.77;2.50;;;25.50;66.10;;;;;;898988;155;27390;-73
2023/06/30 09:30:32;;;;;;;2.67;2.47;;;25.40;66.30;;;;;;898732;155;27328;-73
2023/06/30 09:32:59;;;;;;;2.17;2.02;;;25.30;66.50;;;;;;898403;155;27451;-73
2023/06/30 09:35:26;;;;;;;2.20;2.10;;;25.20;66.40;;;;;;900501;155;27453;-73
2023/06/30 09:37:52;;;;;;;2.25;2.00;;;25.10;66.50;;;;;;898893;155;27477;-73
2023/06/30 09:40:19;;;;;;;1.80;1.70;;;25.10;66.80;;;;;;898752;155;27386;-73
2023/06/30 09:42:45;;;;;;;2.45;2.15;;;25.00;67.10;;;;;;899969;157;27355;-73
2023/06/30 09:45:12;;;;;;;2.30;2.08;;;24.90;68.30;;;;;;900054;155;27463;-73
2023/06/30 09:47:39;;;;;;;2.08;1.92;;;24.90;67.80;;;;;;897041;155;27415;-73
2023/06/30 09:50:05;;;;;;;1.80;1.70;;;24.90;67.90;;;;;;898911;155;27506;-73
2023/06/30 09:52:36;;;;;;;2.00;1.75;;;24.90;68.10;;;;;;900351;155;27389;-73
2023/06/30 09:54:59;;;;;;;1.95;1.85;;;25.00;68.10;;;;;;900827;155;27379;-73
2023/06/30 09:57:28;;;;;;;1.80;1.70;;;25.00;68.20;;;;;;899473;155;27411;-73
2023/06/30 09:59:54;;;;;;;1.82;1.70;;;25.00;68.10;;;;;;897934;155;27975;-73
2023/06/30 10:02:21;;;;;;;2.27;2.08;;;25.10;68.10;;;;;;896694;157;27381;-73
2023/06/30 10:04:48;;;;;;;1.75;1.65;;;25.10;67.90;;;;;;900496;155;27469;-73
2023/06/30 10:07:15;;;;;;;1.80;1.70;;;25.10;67.60;;;;;;899151;155;27403;-73
2023/06/30 10:09:41;;;;;;;1.70;1.60;;;25.10;67.50;;;;;;898246;155;27367;-73
2023/06/30 10:12:07;;;;;;;6.47;1.87;;;25.10;67.30;;;;;;898167;157;27356;-73
2023/06/30 10:14:34;;;;;;;1.37;1.25;;;25.00;67.20;;;;;;899504;155;27382;-73
2023/06/30 10:17:01;;;;;;;1.50;1.40;;;25.00;67.20;;;;;;898584;155;27506;-74
2023/06/30 10:19:27;;;;;;;1.47;1.37;;;24.90;67.10;;;;;;900186;155;27399;-73
2023/06/30 10:21:54;;;;;;;1.40;1.30;;;24.90;67.00;;;;;;897672;155;27454;-73
2023/06/30 10:24:20;;;;;;;1.20;1.10;;;24.80;66.80;;;;;;897966;155;27441;-73
2023/06/30 10:26:47;;;;;;;1.30;1.20;;;24.70;66.70;;;;;;899217;155;27382;-73
2023/06/30 10:29:13;;;;;;;1.20;1.07;;;24.60;66.80;;;;;;898918;155;27421;-73
2023/06/30 10:31:40;;;;;;;1.10;0.80;;;24.50;67.00;;;;;;899675;154;27437;-73
2023/06/30 10:34:07;;;;;;;1.30;0.88;;;24.40;67.10;;;;;;899362;155;27413;-73
2023/06/30 10:36:33;;;;;;;0.70;0.70;;;24.30;67.20;;;;;;901811;155;27308;-73
2023/06/30 10:39:00;;;;;;;3.75;1.37;;;24.30;67.60;;;;;;899691;155;27386;-73
2023/06/30 10:41:26;;;;;;;0.80;0.80;;;24.20;67.70;;;;;;897882;155;27805;-73
2023/06/30 10:44:02;;;;;;;0.55;0.55;;;24.10;67.80;;;;;;898266;155;27355;-73
2023/06/30 10:46:45;;;;;;;0.53;0.53;;;24.00;68.10;;;;;;899954;155;27461;-73
2023/06/30 10:49:31;;;;;;;0.78;0.78;;;23.90;68.40;;;;;;897708;154;27387;-73
2023/06/30 10:52:04;;;;;;;0.70;0.70;;;23.80;68.90;;;;;;897216;155;27786;-73
2023/06/30 10:54:30;;;;;;;1.02;0.80;;;23.70;69.10;;;;;;900915;155;27795;-73
2023/06/30 10:57:06;;;;;;;0.75;0.75;;;23.60;69.40;;;;;;899519;158;27452;-73
2023/06/30 10:59:39;;;;;;;1.45;0.75;;;23.50;69.70;;;;;;899655;155;27563;-73
2023/06/30 11:02:14;;;;;;;2.45;0.70;;;23.30;70.10;;;;;;898671;155;27412;-73
2023/06/30 11:04:40;;;;;;;0.50;0.50;;;23.20;70.30;;;;;;898765;155;27385;-73
2023/06/30 11:07:07;;;;;;;1.02;0.82;;;23.10;70.80;;;;;;899001;155;27352;-74
2023/06/30 11:09:49;;;;;;;1.32;0.80;;;23.10;71.60;;;;;;899471;155;27400;-73
2023/06/30 11:12:24;;;;;;;0.45;0.45;;;23.00;72.40;;;;;;899621;155;27424;-73
2023/06/30 11:14:56;;;;;;;0.88;0.85;;;23.00;72.60;;;;;;898215;155;27402;-73
2023/06/30 11:17:51;;;;;;;0.75;0.75;;;22.90;73.20;;;;;;898725;155;27451;-73
2023/06/30 11:20:17;;;;;;;4.37;1.80;;;23.00;73.30;;;;;;899775;155;27396;-73
2023/06/30 11:23:02;;;;;;;0.70;0.70;;;23.00;73.30;;;;;;897609;156;27392;-73
2023/06/30 11:25:28;;;;;;;0.60;0.50;;;23.00;73.50;;;;;;897505;155;27432;-74
2023/06/30 11:27:58;;;;;;;0.50;0.50;;;23.00;73.40;;;;;;898643;155;27458;-73
2023/06/30 11:30:24;;;;;;;5.15;0.95;;;23.10;73.20;;;;;;899418;155;27411;-73
2023/06/30 11:32:54;;;;;;;0.47;0.47;;;23.10;73.20;;;;;;896938;155;27522;-73
2023/06/30 11:35:20;;;;;;;0.78;0.78;;;23.20;73.20;;;;;;899545;155;27542;-74
2023/06/30 11:37:47;;;;;;;0.75;0.75;;;23.20;72.70;;;;;;897198;154;27497;-74
2023/06/30 11:40:13;;;;;;;0.40;0.40;;;23.20;72.20;;;;;;899363;155;27420;-74
2023/06/30 11:42:40;;;;;;;0.40;0.40;;;23.20;72.00;;;;;;898891;155;27883;-74
2023/06/30 11:45:07;;;;;;;0.50;0.50;;;23.20;71.90;;;;;;898784;155;27864;-74
2023/06/30 11:47:36;;;;;;;0.33;0.30;;;23.10;71.90;;;;;;899232;155;27378;-74
2023/06/30 11:50:09;;;;;;;1.45;0.35;;;23.10;71.70;;;;;;898358;155;27432;-74
2023/06/30 11:52:35;;;;;;;1.52;0.50;;;23.10;71.60;;;;;;898346;155;27881;-74
2023/06/30 11:55:05;;;;;;;0.30;0.30;;;23.00;71.40;;;;;;896442;155;27867;-74
2023/06/30 11:57:37;;;;;;;0.93;0.70;;;23.00;71.60;;;;;;897518;155;27388;-74
2023/06/30 12:00:10;;;;;;;0.42;0.42;;;23.00;71.50;;;;;;900256;154;27419;-74
2023/06/30 12:02:36;;;;;;;0.28;0.28;;;23.00;71.80;;;;;;896694;155;27377;-74
2023/06/30 12:05:04;;;;;;;2.05;0.50;;;23.00;71.80;;;;;;900277;155;27418;-74
2023/06/30 12:07:30;;;;;;;0.28;0.28;;;23.10;72.00;;;;;;897688;155;27402;-74
2023/06/30 12:09:59;;;;;;;2.05;0.40;;;23.10;71.90;;;;;;899420;155;27303;-74
2023/06/30 12:12:26;;;;;;;0.28;0.20;;;23.10;71.80;;;;;;898895;155;27965;-74
2023/06/30 12:14:52;;;;;;;0.60;0.40;;;23.20;71.90;;;;;;899199;157;27436;-74
2023/06/30 12:17:19;;;;;;;1.05;0.45;;;23.30;72.00;;;;;;898287;155;27502;-74
2023/06/30 12:19:45;;;;;;;0.30;0.30;;;23.50;72.20;;;;;;899038;155;27380;-74
2023/06/30 12:22:12;;;;;;;0.50;0.50;;;23.70;72.30;;;;;;900323;155;27476;-74
2023/06/30 12:24:42;;;;;;;0.28;0.28;;;23.90;71.80;;;;;;899798;155;27486;-74
2023/06/30 12:27:05;;;;;;;0.42;0.42;;;24.10;71.40;;;;;;899804;155;27427;-74
2023/06/30 12:29:35;;;;;;;0.50;0.40;;;24.40;71.00;;;;;;897546;155;27417;-74
2023/06/30 12:32:01;;;;;;;0.98;0.50;;;24.60;70.40;;;;;;898151;155;27478;-74
2023/06/30 12:34:31;;;;;;;0.40;0.40;;;24.90;69.60;;;;;;896715;155;27407;-74
2023/06/30 12:36:57;;;;;;;0.30;0.30;;;25.10;68.70;;;;;;898550;155;27486;-74
2023/06/30 12:39:24;;;;;;;0.45;0.45;;;25.30;68.40;;;;;;900729;155;27425;-74
2023/06/30 12:41:50;;;;;;;1.80;0.85;;;25.50;68.10;;;;;;898808;155;27326;-74
2023/06/30 12:44:17;;;;;;;0.50;0.50;;;25.70;67.70;;;;;;899312;155;27397;-74